sensor_id;sensor_type;location;lat;lon;timestamp;P1;durP1;ratioP1;P2;durP2;ratioP2
85218;SDS011;75606;40.152;44.490;2024-01-30T00:01:31;24.58;;;11.73;;
85218;SDS011;75606;40.152;44.490;2024-01-30T00:03:56;25.50;;;13.65;;
85218;SDS011;75606;40.152;44.490;2024-01-30T00:06:22;26.27;;;12.80;;
85218;SDS011;75606;40.152;44.490;2024-01-30T00:08:48;29.20;;;14.45;;
85218;SDS011;75606;40.152;44.490;2024-01-30T00:11:14;32.28;;;15.70;;
85218;SDS011;75606;40.152;44.490;2024-01-30T00:13:41;32.70;;;16.33;;
85218;SDS011;75606;40.152;44.490;2024-01-30T00:16:07;48.00;;;21.90;;
85218;SDS011;75606;40.152;44.490;2024-01-30T00:18:33;51.80;;;24.77;;
85218;SDS011;75606;40.152;44.490;2024-01-30T00:20:59;46.30;;;22.35;;
85218;SDS011;75606;40.152;44.490;2024-01-30T00:23:25;43.58;;;21.48;;
85218;SDS011;75606;40.152;44.490;2024-01-30T00:25:50;48.40;;;23.10;;
85218;SDS011;75606;40.152;44.490;2024-01-30T00:28:16;46.95;;;24.40;;
85218;SDS011;75606;40.152;44.490;2024-01-30T00:30:42;54.92;;;25.85;;
85218;SDS011;75606;40.152;44.490;2024-01-30T00:33:08;43.92;;;21.05;;
85218;SDS011;75606;40.152;44.490;2024-01-30T00:35:34;39.25;;;21.13;;
85218;SDS011;75606;40.152;44.490;2024-01-30T00:37:59;38.22;;;19.52;;
85218;SDS011;75606;40.152;44.490;2024-01-30T00:40:25;51.78;;;24.45;;
85218;SDS011;75606;40.152;44.490;2024-01-30T00:42:51;46.35;;;21.92;;
85218;SDS011;75606;40.152;44.490;2024-01-30T00:45:16;55.30;;;26.60;;
85218;SDS011;75606;40.152;44.490;2024-01-30T00:47:42;39.83;;;19.95;;
85218;SDS011;75606;40.152;44.490;2024-01-30T00:50:08;44.50;;;20.38;;
85218;SDS011;75606;40.152;44.490;2024-01-30T00:52:35;47.20;;;22.17;;
85218;SDS011;75606;40.152;44.490;2024-01-30T00:55:01;35.45;;;19.10;;
85218;SDS011;75606;40.152;44.490;2024-01-30T00:57:27;36.42;;;19.00;;
85218;SDS011;75606;40.152;44.490;2024-01-30T00:59:53;37.83;;;21.35;;
85218;SDS011;75606;40.152;44.490;2024-01-30T01:02:19;38.30;;;20.70;;
85218;SDS011;75606;40.152;44.490;2024-01-30T01:04:44;38.88;;;19.58;;
85218;SDS011;75606;40.152;44.490;2024-01-30T01:07:10;32.50;;;17.48;;
85218;SDS011;75606;40.152;44.490;2024-01-30T01:09:36;33.58;;;16.65;;
85218;SDS011;75606;40.152;44.490;2024-01-30T01:12:02;33.78;;;17.65;;
85218;SDS011;75606;40.152;44.490;2024-01-30T01:14:28;34.80;;;18.38;;
85218;SDS011;75606;40.152;44.490;2024-01-30T01:16:54;31.27;;;16.17;;
85218;SDS011;75606;40.152;44.490;2024-01-30T01:19:20;33.20;;;16.80;;
85218;SDS011;75606;40.152;44.490;2024-01-30T01:21:45;30.02;;;15.60;;
85218;SDS011;75606;40.152;44.490;2024-01-30T01:24:11;33.65;;;16.15;;
85218;SDS011;75606;40.152;44.490;2024-01-30T01:26:36;40.28;;;22.58;;
85218;SDS011;75606;40.152;44.490;2024-01-30T01:29:02;31.90;;;15.43;;
85218;SDS011;75606;40.152;44.490;2024-01-30T01:31:35;30.35;;;15.35;;
85218;SDS011;75606;40.152;44.490;2024-01-30T01:34:05;40.95;;;20.65;;
85218;SDS011;75606;40.152;44.490;2024-01-30T01:36:31;40.60;;;20.50;;
85218;SDS011;75606;40.152;44.490;2024-01-30T01:38:56;33.55;;;14.88;;
85218;SDS011;75606;40.152;44.490;2024-01-30T01:41:22;34.55;;;17.27;;
85218;SDS011;75606;40.152;44.490;2024-01-30T01:43:47;35.63;;;17.08;;
85218;SDS011;75606;40.152;44.490;2024-01-30T01:46:13;34.50;;;16.65;;
85218;SDS011;75606;40.152;44.490;2024-01-30T01:48:39;36.17;;;16.35;;
85218;SDS011;75606;40.152;44.490;2024-01-30T01:51:05;32.92;;;15.23;;
85218;SDS011;75606;40.152;44.490;2024-01-30T01:53:30;36.80;;;15.50;;
85218;SDS011;75606;40.152;44.490;2024-01-30T01:55:56;37.95;;;15.07;;
85218;SDS011;75606;40.152;44.490;2024-01-30T01:58:22;35.10;;;17.20;;
85218;SDS011;75606;40.152;44.490;2024-01-30T02:00:50;37.10;;;16.17;;
85218;SDS011;75606;40.152;44.490;2024-01-30T02:03:16;27.20;;;13.55;;
85218;SDS011;75606;40.152;44.490;2024-01-30T02:05:43;38.75;;;19.25;;
85218;SDS011;75606;40.152;44.490;2024-01-30T02:08:08;37.30;;;19.88;;
85218;SDS011;75606;40.152;44.490;2024-01-30T02:10:34;33.67;;;16.70;;
85218;SDS011;75606;40.152;44.490;2024-01-30T02:13:00;34.53;;;16.02;;
85218;SDS011;75606;40.152;44.490;2024-01-30T02:15:25;38.17;;;17.85;;
85218;SDS011;75606;40.152;44.490;2024-01-30T02:17:51;37.13;;;17.75;;
85218;SDS011;75606;40.152;44.490;2024-01-30T02:20:16;37.88;;;18.63;;
85218;SDS011;75606;40.152;44.490;2024-01-30T02:22:42;33.63;;;16.88;;
85218;SDS011;75606;40.152;44.490;2024-01-30T02:25:08;33.10;;;15.70;;
85218;SDS011;75606;40.152;44.490;2024-01-30T02:27:34;33.33;;;15.23;;
85218;SDS011;75606;40.152;44.490;2024-01-30T02:29:59;33.35;;;15.65;;
85218;SDS011;75606;40.152;44.490;2024-01-30T02:32:25;30.52;;;15.48;;
85218;SDS011;75606;40.152;44.490;2024-01-30T02:34:51;33.72;;;15.63;;
85218;SDS011;75606;40.152;44.490;2024-01-30T02:37:16;35.85;;;17.70;;
85218;SDS011;75606;40.152;44.490;2024-01-30T02:39:42;39.25;;;18.52;;
85218;SDS011;75606;40.152;44.490;2024-01-30T02:42:07;41.15;;;18.15;;
85218;SDS011;75606;40.152;44.490;2024-01-30T02:44:33;37.65;;;19.50;;
85218;SDS011;75606;40.152;44.490;2024-01-30T02:46:58;40.38;;;17.90;;
85218;SDS011;75606;40.152;44.490;2024-01-30T02:49:24;34.08;;;16.98;;
85218;SDS011;75606;40.152;44.490;2024-01-30T02:51:50;37.35;;;20.05;;
85218;SDS011;75606;40.152;44.490;2024-01-30T02:54:16;38.38;;;19.15;;
85218;SDS011;75606;40.152;44.490;2024-01-30T02:56:42;42.47;;;19.60;;
85218;SDS011;75606;40.152;44.490;2024-01-30T02:59:08;43.17;;;20.23;;
85218;SDS011;75606;40.152;44.490;2024-01-30T03:01:36;35.83;;;18.05;;
85218;SDS011;75606;40.152;44.490;2024-01-30T03:04:07;38.60;;;17.20;;
85218;SDS011;75606;40.152;44.490;2024-01-30T03:06:33;43.97;;;20.40;;
85218;SDS011;75606;40.152;44.490;2024-01-30T03:08:59;40.58;;;18.95;;
85218;SDS011;75606;40.152;44.490;2024-01-30T03:11:24;41.13;;;19.98;;
85218;SDS011;75606;40.152;44.490;2024-01-30T03:13:50;45.72;;;18.50;;
85218;SDS011;75606;40.152;44.490;2024-01-30T03:16:15;45.35;;;20.95;;
85218;SDS011;75606;40.152;44.490;2024-01-30T03:18:41;43.35;;;18.27;;
85218;SDS011;75606;40.152;44.490;2024-01-30T03:21:07;42.90;;;20.00;;
85218;SDS011;75606;40.152;44.490;2024-01-30T03:23:32;42.42;;;19.73;;
85218;SDS011;75606;40.152;44.490;2024-01-30T03:25:58;46.85;;;20.10;;
85218;SDS011;75606;40.152;44.490;2024-01-30T03:28:23;38.70;;;18.52;;
85218;SDS011;75606;40.152;44.490;2024-01-30T03:30:49;41.63;;;18.85;;
85218;SDS011;75606;40.152;44.490;2024-01-30T03:33:15;39.50;;;19.65;;
85218;SDS011;75606;40.152;44.490;2024-01-30T03:35:41;47.78;;;21.00;;
85218;SDS011;75606;40.152;44.490;2024-01-30T03:38:06;44.90;;;21.80;;
85218;SDS011;75606;40.152;44.490;2024-01-30T03:40:32;52.15;;;24.65;;
85218;SDS011;75606;40.152;44.490;2024-01-30T03:42:57;38.78;;;18.50;;
85218;SDS011;75606;40.152;44.490;2024-01-30T03:45:23;37.85;;;18.10;;
85218;SDS011;75606;40.152;44.490;2024-01-30T03:47:49;44.35;;;21.63;;
85218;SDS011;75606;40.152;44.490;2024-01-30T03:50:14;42.55;;;20.20;;
85218;SDS011;75606;40.152;44.490;2024-01-30T03:52:40;40.35;;;20.10;;
85218;SDS011;75606;40.152;44.490;2024-01-30T03:55:05;39.13;;;18.45;;
85218;SDS011;75606;40.152;44.490;2024-01-30T03:57:31;49.17;;;22.13;;
85218;SDS011;75606;40.152;44.490;2024-01-30T03:59:57;45.45;;;21.45;;
85218;SDS011;75606;40.152;44.490;2024-01-30T04:02:22;42.40;;;19.60;;
85218;SDS011;75606;40.152;44.490;2024-01-30T04:04:48;45.75;;;24.52;;
85218;SDS011;75606;40.152;44.490;2024-01-30T04:07:13;47.38;;;22.48;;
85218;SDS011;75606;40.152;44.490;2024-01-30T04:09:39;44.72;;;22.58;;
85218;SDS011;75606;40.152;44.490;2024-01-30T04:12:05;50.10;;;26.58;;
85218;SDS011;75606;40.152;44.490;2024-01-30T04:14:30;42.58;;;21.08;;
85218;SDS011;75606;40.152;44.490;2024-01-30T04:16:56;51.38;;;26.70;;
85218;SDS011;75606;40.152;44.490;2024-01-30T04:19:22;53.25;;;26.70;;
85218;SDS011;75606;40.152;44.490;2024-01-30T04:21:47;51.15;;;25.25;;
85218;SDS011;75606;40.152;44.490;2024-01-30T04:24:13;51.03;;;24.05;;
85218;SDS011;75606;40.152;44.490;2024-01-30T04:26:39;45.58;;;22.45;;
85218;SDS011;75606;40.152;44.490;2024-01-30T04:29:04;48.55;;;24.13;;
85218;SDS011;75606;40.152;44.490;2024-01-30T04:31:30;47.10;;;23.77;;
85218;SDS011;75606;40.152;44.490;2024-01-30T04:33:55;44.28;;;21.83;;
85218;SDS011;75606;40.152;44.490;2024-01-30T04:36:21;46.40;;;21.77;;
85218;SDS011;75606;40.152;44.490;2024-01-30T04:38:46;38.03;;;20.08;;
85218;SDS011;75606;40.152;44.490;2024-01-30T04:41:12;40.38;;;20.60;;
85218;SDS011;75606;40.152;44.490;2024-01-30T04:43:38;43.40;;;23.05;;
85218;SDS011;75606;40.152;44.490;2024-01-30T04:46:04;41.80;;;22.08;;
85218;SDS011;75606;40.152;44.490;2024-01-30T04:48:30;44.97;;;23.00;;
85218;SDS011;75606;40.152;44.490;2024-01-30T04:50:55;48.83;;;23.38;;
85218;SDS011;75606;40.152;44.490;2024-01-30T04:53:21;45.10;;;22.88;;
85218;SDS011;75606;40.152;44.490;2024-01-30T04:55:47;48.33;;;21.35;;
85218;SDS011;75606;40.152;44.490;2024-01-30T04:58:12;42.35;;;22.40;;
85218;SDS011;75606;40.152;44.490;2024-01-30T05:00:38;44.17;;;24.70;;
85218;SDS011;75606;40.152;44.490;2024-01-30T05:03:04;40.58;;;20.60;;
85218;SDS011;75606;40.152;44.490;2024-01-30T05:05:29;41.30;;;20.65;;
85218;SDS011;75606;40.152;44.490;2024-01-30T05:07:55;43.25;;;21.98;;
85218;SDS011;75606;40.152;44.490;2024-01-30T05:10:20;45.10;;;23.38;;
85218;SDS011;75606;40.152;44.490;2024-01-30T05:12:46;47.67;;;24.90;;
85218;SDS011;75606;40.152;44.490;2024-01-30T05:15:12;47.00;;;24.27;;
85218;SDS011;75606;40.152;44.490;2024-01-30T05:17:37;42.88;;;20.83;;
85218;SDS011;75606;40.152;44.490;2024-01-30T05:20:03;42.85;;;20.73;;
85218;SDS011;75606;40.152;44.490;2024-01-30T05:22:29;41.35;;;21.70;;
85218;SDS011;75606;40.152;44.490;2024-01-30T05:24:55;49.40;;;22.83;;
85218;SDS011;75606;40.152;44.490;2024-01-30T05:27:21;42.63;;;22.45;;
85218;SDS011;75606;40.152;44.490;2024-01-30T05:29:47;49.53;;;24.25;;
85218;SDS011;75606;40.152;44.490;2024-01-30T05:32:13;48.05;;;26.13;;
85218;SDS011;75606;40.152;44.490;2024-01-30T05:34:38;50.17;;;26.02;;
85218;SDS011;75606;40.152;44.490;2024-01-30T05:37:04;52.25;;;24.50;;
85218;SDS011;75606;40.152;44.490;2024-01-30T05:39:29;48.25;;;22.40;;
85218;SDS011;75606;40.152;44.490;2024-01-30T05:41:58;48.25;;;23.77;;
85218;SDS011;75606;40.152;44.490;2024-01-30T05:44:23;50.33;;;25.20;;
85218;SDS011;75606;40.152;44.490;2024-01-30T05:46:49;48.80;;;24.35;;
85218;SDS011;75606;40.152;44.490;2024-01-30T05:49:15;55.65;;;28.70;;
85218;SDS011;75606;40.152;44.490;2024-01-30T05:51:40;49.10;;;26.27;;
85218;SDS011;75606;40.152;44.490;2024-01-30T05:54:06;59.03;;;27.98;;
85218;SDS011;75606;40.152;44.490;2024-01-30T05:56:31;54.10;;;29.13;;
85218;SDS011;75606;40.152;44.490;2024-01-30T05:58:57;49.90;;;25.67;;
85218;SDS011;75606;40.152;44.490;2024-01-30T06:01:22;51.22;;;26.52;;
85218;SDS011;75606;40.152;44.490;2024-01-30T06:03:48;53.83;;;27.52;;
85218;SDS011;75606;40.152;44.490;2024-01-30T06:06:14;45.90;;;24.60;;
85218;SDS011;75606;40.152;44.490;2024-01-30T06:08:39;46.67;;;24.50;;
85218;SDS011;75606;40.152;44.490;2024-01-30T06:11:05;54.53;;;27.42;;
85218;SDS011;75606;40.152;44.490;2024-01-30T06:13:31;55.25;;;29.55;;
85218;SDS011;75606;40.152;44.490;2024-01-30T06:15:58;50.10;;;27.63;;
85218;SDS011;75606;40.152;44.490;2024-01-30T06:18:23;51.35;;;29.40;;
85218;SDS011;75606;40.152;44.490;2024-01-30T06:20:50;54.45;;;26.38;;
85218;SDS011;75606;40.152;44.490;2024-01-30T06:23:15;49.17;;;25.25;;
85218;SDS011;75606;40.152;44.490;2024-01-30T06:25:41;41.63;;;21.35;;
85218;SDS011;75606;40.152;44.490;2024-01-30T06:28:07;50.78;;;26.92;;
85218;SDS011;75606;40.152;44.490;2024-01-30T06:30:32;46.00;;;26.88;;
85218;SDS011;75606;40.152;44.490;2024-01-30T06:32:58;53.30;;;29.00;;
85218;SDS011;75606;40.152;44.490;2024-01-30T06:35:23;48.97;;;28.85;;
85218;SDS011;75606;40.152;44.490;2024-01-30T06:37:49;44.70;;;23.85;;
85218;SDS011;75606;40.152;44.490;2024-01-30T06:40:15;53.40;;;28.98;;
85218;SDS011;75606;40.152;44.490;2024-01-30T06:42:40;57.67;;;31.42;;
85218;SDS011;75606;40.152;44.490;2024-01-30T06:45:06;49.92;;;28.05;;
85218;SDS011;75606;40.152;44.490;2024-01-30T06:47:33;50.85;;;29.42;;
85218;SDS011;75606;40.152;44.490;2024-01-30T06:49:58;52.75;;;30.50;;
85218;SDS011;75606;40.152;44.490;2024-01-30T06:52:24;51.03;;;29.48;;
85218;SDS011;75606;40.152;44.490;2024-01-30T06:54:50;40.33;;;22.75;;
85218;SDS011;75606;40.152;44.490;2024-01-30T06:57:16;48.10;;;26.15;;
85218;SDS011;75606;40.152;44.490;2024-01-30T06:59:41;45.75;;;26.10;;
85218;SDS011;75606;40.152;44.490;2024-01-30T07:02:09;49.70;;;28.10;;
85218;SDS011;75606;40.152;44.490;2024-01-30T07:04:35;49.80;;;28.27;;
85218;SDS011;75606;40.152;44.490;2024-01-30T07:07:02;43.63;;;27.90;;
85218;SDS011;75606;40.152;44.490;2024-01-30T07:09:30;48.85;;;24.23;;
85218;SDS011;75606;40.152;44.490;2024-01-30T07:11:55;43.38;;;26.80;;
85218;SDS011;75606;40.152;44.490;2024-01-30T07:14:23;49.10;;;27.02;;
85218;SDS011;75606;40.152;44.490;2024-01-30T07:16:49;43.00;;;24.05;;
85218;SDS011;75606;40.152;44.490;2024-01-30T07:19:15;48.38;;;25.23;;
85218;SDS011;75606;40.152;44.490;2024-01-30T07:21:41;41.78;;;23.90;;
85218;SDS011;75606;40.152;44.490;2024-01-30T07:24:07;40.78;;;23.45;;
85218;SDS011;75606;40.152;44.490;2024-01-30T07:26:34;39.78;;;22.83;;
85218;SDS011;75606;40.152;44.490;2024-01-30T07:29:01;34.70;;;18.17;;
85218;SDS011;75606;40.152;44.490;2024-01-30T07:31:26;30.30;;;17.83;;
85218;SDS011;75606;40.152;44.490;2024-01-30T07:33:52;35.83;;;19.90;;
85218;SDS011;75606;40.152;44.490;2024-01-30T07:36:19;32.47;;;18.00;;
85218;SDS011;75606;40.152;44.490;2024-01-30T07:38:45;35.00;;;20.73;;
85218;SDS011;75606;40.152;44.490;2024-01-30T07:41:10;40.15;;;22.17;;
85218;SDS011;75606;40.152;44.490;2024-01-30T07:43:37;35.08;;;20.73;;
85218;SDS011;75606;40.152;44.490;2024-01-30T07:46:03;30.45;;;18.38;;
85218;SDS011;75606;40.152;44.490;2024-01-30T07:48:31;32.45;;;19.65;;
85218;SDS011;75606;40.152;44.490;2024-01-30T07:51:00;34.58;;;19.73;;
85218;SDS011;75606;40.152;44.490;2024-01-30T07:53:25;33.22;;;19.63;;
85218;SDS011;75606;40.152;44.490;2024-01-30T07:55:51;31.27;;;18.60;;
85218;SDS011;75606;40.152;44.490;2024-01-30T07:58:17;29.55;;;19.00;;
85218;SDS011;75606;40.152;44.490;2024-01-30T08:00:44;33.17;;;20.38;;
85218;SDS011;75606;40.152;44.490;2024-01-30T08:03:10;27.63;;;15.88;;
85218;SDS011;75606;40.152;44.490;2024-01-30T08:05:35;27.75;;;15.48;;
85218;SDS011;75606;40.152;44.490;2024-01-30T08:08:01;29.83;;;17.25;;
85218;SDS011;75606;40.152;44.490;2024-01-30T08:10:27;30.42;;;18.42;;
85218;SDS011;75606;40.152;44.490;2024-01-30T08:12:52;30.95;;;18.00;;
85218;SDS011;75606;40.152;44.490;2024-01-30T08:15:18;30.27;;;17.30;;
85218;SDS011;75606;40.152;44.490;2024-01-30T08:17:44;30.60;;;16.02;;
85218;SDS011;75606;40.152;44.490;2024-01-30T08:20:10;29.85;;;15.93;;
85218;SDS011;75606;40.152;44.490;2024-01-30T08:22:39;31.98;;;18.13;;
85218;SDS011;75606;40.152;44.490;2024-01-30T08:25:05;27.13;;;17.33;;
85218;SDS011;75606;40.152;44.490;2024-01-30T08:27:32;28.50;;;16.48;;
85218;SDS011;75606;40.152;44.490;2024-01-30T08:29:57;25.98;;;17.17;;
85218;SDS011;75606;40.152;44.490;2024-01-30T08:32:23;24.27;;;14.70;;
85218;SDS011;75606;40.152;44.490;2024-01-30T08:34:49;27.48;;;16.15;;
85218;SDS011;75606;40.152;44.490;2024-01-30T08:37:14;28.58;;;17.92;;
85218;SDS011;75606;40.152;44.490;2024-01-30T08:39:42;29.70;;;17.75;;
85218;SDS011;75606;40.152;44.490;2024-01-30T08:42:08;26.75;;;16.65;;
85218;SDS011;75606;40.152;44.490;2024-01-30T08:44:34;24.52;;;15.57;;
85218;SDS011;75606;40.152;44.490;2024-01-30T08:46:59;30.48;;;18.83;;
85218;SDS011;75606;40.152;44.490;2024-01-30T08:49:25;25.90;;;15.52;;
85218;SDS011;75606;40.152;44.490;2024-01-30T08:51:50;30.52;;;17.73;;
85218;SDS011;75606;40.152;44.490;2024-01-30T08:54:16;33.78;;;18.63;;
85218;SDS011;75606;40.152;44.490;2024-01-30T08:56:42;27.55;;;16.85;;
85218;SDS011;75606;40.152;44.490;2024-01-30T08:59:08;29.13;;;17.75;;
85218;SDS011;75606;40.152;44.490;2024-01-30T09:01:33;26.33;;;15.65;;
85218;SDS011;75606;40.152;44.490;2024-01-30T09:03:59;28.55;;;16.92;;
85218;SDS011;75606;40.152;44.490;2024-01-30T09:06:25;26.00;;;15.48;;
85218;SDS011;75606;40.152;44.490;2024-01-30T09:08:53;28.20;;;16.95;;
85218;SDS011;75606;40.152;44.490;2024-01-30T09:11:19;22.85;;;14.65;;
85218;SDS011;75606;40.152;44.490;2024-01-30T09:13:44;23.52;;;14.10;;
85218;SDS011;75606;40.152;44.490;2024-01-30T09:16:10;24.90;;;14.43;;
85218;SDS011;75606;40.152;44.490;2024-01-30T09:18:36;26.27;;;15.93;;
85218;SDS011;75606;40.152;44.490;2024-01-30T09:21:01;23.80;;;14.30;;
85218;SDS011;75606;40.152;44.490;2024-01-30T09:23:27;28.38;;;15.35;;
85218;SDS011;75606;40.152;44.490;2024-01-30T09:25:53;29.08;;;17.60;;
85218;SDS011;75606;40.152;44.490;2024-01-30T09:28:19;27.60;;;15.80;;
85218;SDS011;75606;40.152;44.490;2024-01-30T09:30:45;28.20;;;16.38;;
85218;SDS011;75606;40.152;44.490;2024-01-30T09:33:11;26.45;;;14.98;;
85218;SDS011;75606;40.152;44.490;2024-01-30T09:35:36;23.05;;;14.13;;
85218;SDS011;75606;40.152;44.490;2024-01-30T09:38:02;26.98;;;15.90;;
85218;SDS011;75606;40.152;44.490;2024-01-30T09:40:28;26.10;;;16.15;;
85218;SDS011;75606;40.152;44.490;2024-01-30T09:42:54;27.15;;;16.52;;
85218;SDS011;75606;40.152;44.490;2024-01-30T09:45:23;24.55;;;14.43;;
85218;SDS011;75606;40.152;44.490;2024-01-30T09:47:50;24.83;;;14.82;;
85218;SDS011;75606;40.152;44.490;2024-01-30T09:50:17;25.08;;;14.32;;
85218;SDS011;75606;40.152;44.490;2024-01-30T09:52:47;26.02;;;14.18;;
85218;SDS011;75606;40.152;44.490;2024-01-30T09:55:13;24.02;;;15.93;;
85218;SDS011;75606;40.152;44.490;2024-01-30T09:57:41;26.42;;;15.75;;
85218;SDS011;75606;40.152;44.490;2024-01-30T10:00:07;28.20;;;16.23;;
85218;SDS011;75606;40.152;44.490;2024-01-30T10:02:33;29.90;;;17.15;;
85218;SDS011;75606;40.152;44.490;2024-01-30T10:04:59;33.65;;;19.38;;
85218;SDS011;75606;40.152;44.490;2024-01-30T10:07:25;31.17;;;18.30;;
85218;SDS011;75606;40.152;44.490;2024-01-30T10:09:51;33.28;;;18.08;;
85218;SDS011;75606;40.152;44.490;2024-01-30T10:12:18;34.10;;;20.15;;
85218;SDS011;75606;40.152;44.490;2024-01-30T10:14:44;29.27;;;18.48;;
85218;SDS011;75606;40.152;44.490;2024-01-30T10:17:09;27.27;;;16.15;;
85218;SDS011;75606;40.152;44.490;2024-01-30T10:19:36;34.40;;;19.67;;
85218;SDS011;75606;40.152;44.490;2024-01-30T10:22:05;26.40;;;17.40;;
85218;SDS011;75606;40.152;44.490;2024-01-30T10:24:33;27.77;;;18.58;;
85218;SDS011;75606;40.152;44.490;2024-01-30T10:26:59;27.08;;;16.88;;
85218;SDS011;75606;40.152;44.490;2024-01-30T10:29:24;27.75;;;16.10;;
85218;SDS011;75606;40.152;44.490;2024-01-30T10:34:28;25.73;;;17.15;;
85218;SDS011;75606;40.152;44.490;2024-01-30T10:37:15;31.15;;;18.70;;
85218;SDS011;75606;40.152;44.490;2024-01-30T10:39:41;25.38;;;16.50;;
85218;SDS011;75606;40.152;44.490;2024-01-30T10:42:12;25.95;;;15.20;;
85218;SDS011;75606;40.152;44.490;2024-01-30T10:45:20;28.45;;;17.63;;
85218;SDS011;75606;40.152;44.490;2024-01-30T10:47:36;26.88;;;16.90;;
85218;SDS011;75606;40.152;44.490;2024-01-30T10:50:03;24.23;;;16.08;;
85218;SDS011;75606;40.152;44.490;2024-01-30T10:52:29;27.65;;;15.65;;
85218;SDS011;75606;40.152;44.490;2024-01-30T10:54:55;21.15;;;13.43;;
85218;SDS011;75606;40.152;44.490;2024-01-30T10:57:24;24.42;;;15.02;;
85218;SDS011;75606;40.152;44.490;2024-01-30T10:59:53;19.83;;;12.90;;
85218;SDS011;75606;40.152;44.490;2024-01-30T11:02:21;24.45;;;15.07;;
85218;SDS011;75606;40.152;44.490;2024-01-30T11:04:49;30.00;;;18.63;;
85218;SDS011;75606;40.152;44.490;2024-01-30T11:07:18;24.27;;;15.00;;
85218;SDS011;75606;40.152;44.490;2024-01-30T11:09:52;25.63;;;14.80;;
85218;SDS011;75606;40.152;44.490;2024-01-30T11:12:22;26.60;;;16.45;;
85218;SDS011;75606;40.152;44.490;2024-01-30T11:14:49;29.38;;;17.58;;
85218;SDS011;75606;40.152;44.490;2024-01-30T11:17:16;30.05;;;17.05;;
85218;SDS011;75606;40.152;44.490;2024-01-30T11:19:42;32.35;;;19.50;;
85218;SDS011;75606;40.152;44.490;2024-01-30T11:22:08;29.42;;;16.92;;
85218;SDS011;75606;40.152;44.490;2024-01-30T11:24:40;27.73;;;17.40;;
85218;SDS011;75606;40.152;44.490;2024-01-30T11:29:37;27.50;;;16.60;;
85218;SDS011;75606;40.152;44.490;2024-01-30T11:32:03;23.58;;;15.73;;
85218;SDS011;75606;40.152;44.490;2024-01-30T11:34:29;30.23;;;19.13;;
85218;SDS011;75606;40.152;44.490;2024-01-30T11:39:29;27.35;;;17.05;;
85218;SDS011;75606;40.152;44.490;2024-01-30T11:41:55;29.52;;;16.98;;
85218;SDS011;75606;40.152;44.490;2024-01-30T11:44:21;31.42;;;21.33;;
85218;SDS011;75606;40.152;44.490;2024-01-30T11:46:48;35.55;;;20.88;;
85218;SDS011;75606;40.152;44.490;2024-01-30T11:49:14;40.13;;;23.40;;
85218;SDS011;75606;40.152;44.490;2024-01-30T11:51:39;39.65;;;23.17;;
85218;SDS011;75606;40.152;44.490;2024-01-30T11:54:05;40.28;;;23.17;;
85218;SDS011;75606;40.152;44.490;2024-01-30T11:56:31;36.75;;;21.65;;
85218;SDS011;75606;40.152;44.490;2024-01-30T11:58:56;40.50;;;25.73;;
85218;SDS011;75606;40.152;44.490;2024-01-30T12:01:22;40.40;;;24.92;;
85218;SDS011;75606;40.152;44.490;2024-01-30T12:03:51;43.03;;;25.08;;
85218;SDS011;75606;40.152;44.490;2024-01-30T12:06:17;40.50;;;23.90;;
85218;SDS011;75606;40.152;44.490;2024-01-30T12:08:42;40.17;;;25.05;;
85218;SDS011;75606;40.152;44.490;2024-01-30T12:11:09;38.85;;;23.90;;
85218;SDS011;75606;40.152;44.490;2024-01-30T12:13:35;31.42;;;20.30;;
85218;SDS011;75606;40.152;44.490;2024-01-30T12:16:00;28.30;;;17.77;;
85218;SDS011;75606;40.152;44.490;2024-01-30T12:18:26;28.85;;;16.73;;
85218;SDS011;75606;40.152;44.490;2024-01-30T12:20:58;37.05;;;22.42;;
85218;SDS011;75606;40.152;44.490;2024-01-30T12:23:25;32.63;;;18.75;;
85218;SDS011;75606;40.152;44.490;2024-01-30T12:25:51;32.47;;;19.67;;
85218;SDS011;75606;40.152;44.490;2024-01-30T12:28:17;32.88;;;18.50;;
85218;SDS011;75606;40.152;44.490;2024-01-30T12:30:45;36.05;;;21.60;;
85218;SDS011;75606;40.152;44.490;2024-01-30T12:33:15;36.13;;;19.55;;
85218;SDS011;75606;40.152;44.490;2024-01-30T12:35:45;38.58;;;21.92;;
85218;SDS011;75606;40.152;44.490;2024-01-30T12:38:11;36.42;;;22.02;;
85218;SDS011;75606;40.152;44.490;2024-01-30T12:40:37;36.20;;;21.17;;
85218;SDS011;75606;40.152;44.490;2024-01-30T12:43:03;46.58;;;25.05;;
85218;SDS011;75606;40.152;44.490;2024-01-30T12:45:29;100.18;;;53.75;;
85218;SDS011;75606;40.152;44.490;2024-01-30T12:47:55;38.28;;;23.05;;
85218;SDS011;75606;40.152;44.490;2024-01-30T12:50:21;44.20;;;25.17;;
85218;SDS011;75606;40.152;44.490;2024-01-30T12:52:47;35.28;;;22.58;;
85218;SDS011;75606;40.152;44.490;2024-01-30T12:55:13;47.05;;;26.33;;
85218;SDS011;75606;40.152;44.490;2024-01-30T12:57:39;42.22;;;23.55;;
85218;SDS011;75606;40.152;44.490;2024-01-30T13:00:04;60.42;;;34.85;;
85218;SDS011;75606;40.152;44.490;2024-01-30T13:02:33;44.95;;;24.73;;
85218;SDS011;75606;40.152;44.490;2024-01-30T13:05:02;46.97;;;25.77;;
85218;SDS011;75606;40.152;44.490;2024-01-30T13:07:28;46.50;;;25.52;;
85218;SDS011;75606;40.152;44.490;2024-01-30T13:09:54;40.97;;;22.45;;
85218;SDS011;75606;40.152;44.490;2024-01-30T13:12:20;48.63;;;24.70;;
85218;SDS011;75606;40.152;44.490;2024-01-30T13:14:45;40.35;;;23.13;;
85218;SDS011;75606;40.152;44.490;2024-01-30T13:17:11;46.50;;;24.15;;
85218;SDS011;75606;40.152;44.490;2024-01-30T13:19:37;39.17;;;22.00;;
85218;SDS011;75606;40.152;44.490;2024-01-30T13:22:02;49.72;;;24.67;;
85218;SDS011;75606;40.152;44.490;2024-01-30T13:24:28;42.13;;;23.23;;
85218;SDS011;75606;40.152;44.490;2024-01-30T13:26:54;46.97;;;24.30;;
85218;SDS011;75606;40.152;44.490;2024-01-30T13:29:20;47.33;;;23.67;;
85218;SDS011;75606;40.152;44.490;2024-01-30T13:31:45;37.08;;;20.95;;
85218;SDS011;75606;40.152;44.490;2024-01-30T13:34:12;38.53;;;20.02;;
85218;SDS011;75606;40.152;44.490;2024-01-30T13:36:39;44.50;;;24.33;;
85218;SDS011;75606;40.152;44.490;2024-01-30T13:39:05;46.85;;;24.63;;
85218;SDS011;75606;40.152;44.490;2024-01-30T13:41:35;43.97;;;24.20;;
85218;SDS011;75606;40.152;44.490;2024-01-30T13:44:01;41.80;;;23.70;;
85218;SDS011;75606;40.152;44.490;2024-01-30T13:46:28;48.65;;;27.73;;
85218;SDS011;75606;40.152;44.490;2024-01-30T13:48:56;43.20;;;23.80;;
85218;SDS011;75606;40.152;44.490;2024-01-30T13:51:21;47.00;;;23.98;;
85218;SDS011;75606;40.152;44.490;2024-01-30T13:53:47;51.58;;;25.90;;
85218;SDS011;75606;40.152;44.490;2024-01-30T13:56:12;50.75;;;25.65;;
85218;SDS011;75606;40.152;44.490;2024-01-30T13:58:38;58.65;;;26.50;;
85218;SDS011;75606;40.152;44.490;2024-01-30T14:01:04;46.90;;;23.35;;
85218;SDS011;75606;40.152;44.490;2024-01-30T14:03:30;49.83;;;25.55;;
85218;SDS011;75606;40.152;44.490;2024-01-30T14:05:56;52.05;;;22.85;;
85218;SDS011;75606;40.152;44.490;2024-01-30T14:08:21;50.22;;;24.38;;
85218;SDS011;75606;40.152;44.490;2024-01-30T14:10:49;49.20;;;26.25;;